sensor_id;sensor_type;location;lat;lon;timestamp;pressure;altitude;pressure_sealevel;temperature;humidity
65173;BME280;51758;52.218;5.172;2023-03-19T00:00:50;99120.75;;;10.90;100.00
65173;BME280;51758;52.218;5.172;2023-03-19T00:03:18;99124.41;;;10.89;100.00
65173;BME280;51758;52.218;5.172;2023-03-19T00:05:49;99116.56;;;10.89;100.00
65173;BME280;51758;52.218;5.172;2023-03-19T00:08:18;99114.16;;;10.87;100.00
65173;BME280;51758;52.218;5.172;2023-03-19T00:10:45;99119.94;;;10.89;100.00
65173;BME280;51758;52.218;5.172;2023-03-19T00:13:13;99125.03;;;10.84;100.00
65173;BME280;51758;52.218;5.172;2023-03-19T00:15:42;99100.13;;;10.70;100.00
65173;BME280;51758;52.218;5.172;2023-03-19T00:18:10;99099.59;;;10.80;100.00
65173;BME280;51758;52.218;5.172;2023-03-19T00:20:38;99103.00;;;10.80;100.00
65173;BME280;51758;52.218;5.172;2023-03-19T00:23:06;99103.94;;;10.86;100.00
65173;BME280;51758;52.218;5.172;2023-03-19T00:25:34;99099.38;;;10.81;100.00
65173;BME280;51758;52.218;5.172;2023-03-19T00:28:02;99098.38;;;10.82;100.00
65173;BME280;51758;52.218;5.172;2023-03-19T00:30:30;99104.38;;;10.83;100.00
65173;BME280;51758;52.218;5.172;2023-03-19T00:32:59;99098.22;;;10.77;100.00
65173;BME280;51758;52.218;5.172;2023-03-19T00:35:27;99097.56;;;10.82;100.00
65173;BME280;51758;52.218;5.172;2023-03-19T00:37:55;99088.59;;;10.89;100.00
65173;BME280;51758;52.218;5.172;2023-03-19T00:40:23;99100.97;;;10.82;100.00
65173;BME280;51758;52.218;5.172;2023-03-19T00:42:50;99109.50;;;10.89;100.00
65173;BME280;51758;52.218;5.172;2023-03-19T00:45:18;99109.81;;;10.81;100.00
65173;BME280;51758;52.218;5.172;2023-03-19T00:47:46;99110.47;;;10.76;100.00
65173;BME280;51758;52.218;5.172;2023-03-19T00:50:15;99114.47;;;10.79;100.00
65173;BME280;51758;52.218;5.172;2023-03-19T00:52:43;99107.22;;;10.81;100.00
65173;BME280;51758;52.218;5.172;2023-03-19T00:55:10;99102.47;;;10.90;100.00
65173;BME280;51758;52.218;5.172;2023-03-19T00:57:38;99105.41;;;10.82;100.00
65173;BME280;51758;52.218;5.172;2023-03-19T01:00:07;99068.63;;;10.53;100.00
65173;BME280;51758;52.218;5.172;2023-03-19T01:02:36;99100.59;;;10.78;100.00
65173;BME280;51758;52.218;5.172;2023-03-19T01:05:04;99100.03;;;10.76;100.00
65173;BME280;51758;52.218;5.172;2023-03-19T01:07:35;99091.88;;;10.73;100.00
65173;BME280;51758;52.218;5.172;2023-03-19T01:10:03;99094.25;;;10.74;100.00
65173;BME280;51758;52.218;5.172;2023-03-19T01:12:31;99036.63;;;10.46;100.00
65173;BME280;51758;52.218;5.172;2023-03-19T01:14:59;99097.66;;;10.75;100.00
65173;BME280;51758;52.218;5.172;2023-03-19T01:17:27;99099.75;;;10.66;100.00
65173;BME280;51758;52.218;5.172;2023-03-19T01:19:55;99097.03;;;10.61;100.00
65173;BME280;51758;52.218;5.172;2023-03-19T01:22:22;99092.94;;;10.65;100.00
65173;BME280;51758;52.218;5.172;2023-03-19T01:24:51;99084.47;;;10.70;100.00
65173;BME280;51758;52.218;5.172;2023-03-19T01:27:19;99083.44;;;10.71;100.00
65173;BME280;51758;52.218;5.172;2023-03-19T01:29:47;99082.88;;;10.69;100.00
65173;BME280;51758;52.218;5.172;2023-03-19T01:32:15;99085.81;;;10.61;100.00
65173;BME280;51758;52.218;5.172;2023-03-19T01:34:42;99081.09;;;10.51;100.00
65173;BME280;51758;52.218;5.172;2023-03-19T01:37:10;99085.22;;;10.40;100.00
65173;BME280;51758;52.218;5.172;2023-03-19T01:39:38;99086.63;;;10.43;100.00
65173;BME280;51758;52.218;5.172;2023-03-19T01:42:07;99072.06;;;10.35;100.00
65173;BME280;51758;52.218;5.172;2023-03-19T01:44:37;99066.63;;;10.37;100.00
65173;BME280;51758;52.218;5.172;2023-03-19T01:47:06;99072.94;;;10.29;100.00
65173;BME280;51758;52.218;5.172;2023-03-19T01:49:41;99071.69;;;10.32;100.00
65173;BME280;51758;52.218;5.172;2023-03-19T01:52:12;99057.13;;;10.43;100.00
65173;BME280;51758;52.218;5.172;2023-03-19T01:54:40;99052.56;;;10.38;100.00
65173;BME280;51758;52.218;5.172;2023-03-19T01:57:11;99061.34;;;10.25;100.00
65173;BME280;51758;52.218;5.172;2023-03-19T01:59:42;99051.25;;;10.29;100.00
65173;BME280;51758;52.218;5.172;2023-03-19T02:02:15;99046.03;;;10.29;100.00
65173;BME280;51758;52.218;5.172;2023-03-19T02:04:46;99057.00;;;10.19;100.00
65173;BME280;51758;52.218;5.172;2023-03-19T02:07:17;99066.53;;;10.07;100.00
65173;BME280;51758;52.218;5.172;2023-03-19T02:09:45;99068.44;;;10.00;100.00
65173;BME280;51758;52.218;5.172;2023-03-19T02:12:15;99054.59;;;9.99;100.00
65173;BME280;51758;52.218;5.172;2023-03-19T02:14:44;99054.22;;;9.96;100.00
65173;BME280;51758;52.218;5.172;2023-03-19T02:17:12;99060.75;;;9.87;100.00
65173;BME280;51758;52.218;5.172;2023-03-19T02:19:45;99038.88;;;9.88;100.00
65173;BME280;51758;52.218;5.172;2023-03-19T02:22:17;99038.09;;;9.87;100.00
65173;BME280;51758;52.218;5.172;2023-03-19T02:24:50;99025.53;;;9.78;100.00
65173;BME280;51758;52.218;5.172;2023-03-19T02:27:21;99023.81;;;9.72;100.00
65173;BME280;51758;52.218;5.172;2023-03-19T02:29:49;99024.22;;;9.68;100.00
65173;BME280;51758;52.218;5.172;2023-03-19T02:32:17;99004.59;;;9.66;100.00
65173;BME280;51758;52.218;5.172;2023-03-19T02:34:46;98978.47;;;9.54;100.00
65173;BME280;51758;52.218;5.172;2023-03-19T02:37:18;98991.59;;;9.66;100.00
65173;BME280;51758;52.218;5.172;2023-03-19T02:39:50;98989.41;;;9.63;100.00
65173;BME280;51758;52.218;5.172;2023-03-19T02:42:24;98986.78;;;9.63;100.00
65173;BME280;51758;52.218;5.172;2023-03-19T02:44:53;98988.84;;;9.61;100.00
65173;BME280;51758;52.218;5.172;2023-03-19T02:47:22;98983.69;;;9.36;100.00
65173;BME280;51758;52.218;5.172;2023-03-19T02:49:50;99000.50;;;9.58;100.00
65173;BME280;51758;52.218;5.172;2023-03-19T02:52:18;98989.78;;;9.48;100.00
65173;BME280;51758;52.218;5.172;2023-03-19T02:54:45;98993.59;;;9.46;100.00
65173;BME280;51758;52.218;5.172;2023-03-19T02:57:14;98995.13;;;9.53;100.00
65173;BME280;51758;52.218;5.172;2023-03-19T02:59:43;98983.19;;;9.46;100.00
65173;BME280;51758;52.218;5.172;2023-03-19T03:02:10;98989.03;;;9.41;100.00
65173;BME280;51758;52.218;5.172;2023-03-19T03:04:38;98976.75;;;9.48;100.00
65173;BME280;51758;52.218;5.172;2023-03-19T03:07:07;98977.25;;;9.57;100.00
65173;BME280;51758;52.218;5.172;2023-03-19T03:09:35;98984.28;;;9.56;100.00
65173;BME280;51758;52.218;5.172;2023-03-19T03:12:03;98980.22;;;9.60;100.00
65173;BME280;51758;52.218;5.172;2023-03-19T03:14:31;98987.81;;;9.44;100.00
65173;BME280;51758;52.218;5.172;2023-03-19T03:17:00;98985.78;;;9.46;100.00
65173;BME280;51758;52.218;5.172;2023-03-19T03:19:28;98985.75;;;9.27;100.00
65173;BME280;51758;52.218;5.172;2023-03-19T03:21:56;98997.50;;;9.37;100.00
65173;BME280;51758;52.218;5.172;2023-03-19T03:24:24;99002.91;;;9.35;100.00
65173;BME280;51758;52.218;5.172;2023-03-19T03:26:51;99000.81;;;9.44;100.00
65173;BME280;51758;52.218;5.172;2023-03-19T03:29:19;99001.53;;;9.32;100.00
65173;BME280;51758;52.218;5.172;2023-03-19T03:31:47;98997.72;;;9.35;100.00
65173;BME280;51758;52.218;5.172;2023-03-19T03:34:16;99002.06;;;9.16;100.00
65173;BME280;51758;52.218;5.172;2023-03-19T03:36:44;99011.53;;;9.11;100.00
65173;BME280;51758;52.218;5.172;2023-03-19T03:39:12;99007.47;;;9.15;100.00
65173;BME280;51758;52.218;5.172;2023-03-19T03:41:40;99012.34;;;9.11;100.00
65173;BME280;51758;52.218;5.172;2023-03-19T03:44:08;99022.59;;;9.06;100.00
65173;BME280;51758;52.218;5.172;2023-03-19T03:46:35;99023.78;;;9.04;100.00
65173;BME280;51758;52.218;5.172;2023-03-19T03:49:03;99022.84;;;8.98;100.00
65173;BME280;51758;52.218;5.172;2023-03-19T03:51:32;99034.34;;;8.84;100.00
65173;BME280;51758;52.218;5.172;2023-03-19T03:54:00;99035.16;;;8.84;100.00
65173;BME280;51758;52.218;5.172;2023-03-19T03:56:28;99037.56;;;8.79;100.00
65173;BME280;51758;52.218;5.172;2023-03-19T03:58:56;99043.44;;;8.68;100.00
65173;BME280;51758;52.218;5.172;2023-03-19T04:01:24;99040.25;;;8.66;100.00
65173;BME280;51758;52.218;5.172;2023-03-19T04:03:52;99045.06;;;8.62;100.00
65173;BME280;51758;52.218;5.172;2023-03-19T04:06:21;99013.13;;;8.49;100.00
65173;BME280;51758;52.218;5.172;2023-03-19T04:08:51;99032.50;;;8.59;100.00
65173;BME280;51758;52.218;5.172;2023-03-19T04:11:18;99024.09;;;8.57;100.00
65173;BME280;51758;52.218;5.172;2023-03-19T04:13:46;99028.13;;;8.53;100.00
65173;BME280;51758;52.218;5.172;2023-03-19T04:16:14;99031.13;;;8.57;100.00
65173;BME280;51758;52.218;5.172;2023-03-19T04:18:42;99029.53;;;8.49;100.00
65173;BME280;51758;52.218;5.172;2023-03-19T04:21:09;99022.31;;;8.51;100.00
65173;BME280;51758;52.218;5.172;2023-03-19T04:23:37;99022.75;;;8.48;100.00
65173;BME280;51758;52.218;5.172;2023-03-19T04:26:06;99017.59;;;8.42;100.00
65173;BME280;51758;52.218;5.172;2023-03-19T04:28:34;99010.13;;;8.52;100.00
65173;BME280;51758;52.218;5.172;2023-03-19T04:31:04;99015.31;;;8.52;100.00
65173;BME280;51758;52.218;5.172;2023-03-19T04:33:33;98977.47;;;8.18;100.00
65173;BME280;51758;52.218;5.172;2023-03-19T04:36:01;99024.78;;;8.46;100.00
65173;BME280;51758;52.218;5.172;2023-03-19T04:38:29;99025.19;;;8.43;100.00
65173;BME280;51758;52.218;5.172;2023-03-19T04:40:57;99029.13;;;8.52;100.00
65173;BME280;51758;52.218;5.172;2023-03-19T04:43:26;99029.91;;;8.59;100.00
65173;BME280;51758;52.218;5.172;2023-03-19T04:45:54;99024.44;;;8.68;100.00
65173;BME280;51758;52.218;5.172;2023-03-19T04:48:22;99029.44;;;8.69;100.00
65173;BME280;51758;52.218;5.172;2023-03-19T04:50:50;99021.22;;;8.72;100.00
65173;BME280;51758;52.218;5.172;2023-03-19T04:53:18;99027.66;;;8.63;100.00
65173;BME280;51758;52.218;5.172;2023-03-19T04:55:46;99029.84;;;8.66;100.00
65173;BME280;51758;52.218;5.172;2023-03-19T04:58:14;99030.91;;;8.58;100.00
65173;BME280;51758;52.218;5.172;2023-03-19T05:00:43;99036.91;;;8.59;100.00
65173;BME280;51758;52.218;5.172;2023-03-19T05:03:12;99044.72;;;8.52;100.00
65173;BME280;51758;52.218;5.172;2023-03-19T05:05:40;99061.53;;;8.50;100.00
65173;BME280;51758;52.218;5.172;2023-03-19T05:08:08;99063.19;;;8.44;100.00
65173;BME280;51758;52.218;5.172;2023-03-19T05:10:36;99073.03;;;8.36;100.00
65173;BME280;51758;52.218;5.172;2023-03-19T05:13:05;99086.00;;;8.29;100.00
65173;BME280;51758;52.218;5.172;2023-03-19T05:15:33;99086.81;;;8.30;100.00
65173;BME280;51758;52.218;5.172;2023-03-19T05:18:03;99061.63;;;8.23;100.00
65173;BME280;51758;52.218;5.172;2023-03-19T05:20:30;99064.19;;;8.37;100.00
65173;BME280;51758;52.218;5.172;2023-03-19T05:22:59;99048.00;;;8.28;100.00
65173;BME280;51758;52.218;5.172;2023-03-19T05:25:26;98966.19;;;7.93;100.00
65173;BME280;51758;52.218;5.172;2023-03-19T05:27:55;99037.97;;;8.45;100.00
65173;BME280;51758;52.218;5.172;2023-03-19T05:30:23;99026.72;;;8.51;100.00
65173;BME280;51758;52.218;5.172;2023-03-19T05:32:50;99032.78;;;8.45;100.00
65173;BME280;51758;52.218;5.172;2023-03-19T05:35:19;99023.03;;;8.34;100.00
65173;BME280;51758;52.218;5.172;2023-03-19T05:37:48;99040.44;;;8.33;100.00
65173;BME280;51758;52.218;5.172;2023-03-19T05:40:16;99046.22;;;8.28;100.00
65173;BME280;51758;52.218;5.172;2023-03-19T05:42:43;99040.81;;;8.23;100.00
65173;BME280;51758;52.218;5.172;2023-03-19T05:45:11;99026.00;;;8.37;100.00
65173;BME280;51758;52.218;5.172;2023-03-19T05:47:39;99022.81;;;8.28;100.00
65173;BME280;51758;52.218;5.172;2023-03-19T05:50:08;99028.00;;;8.28;100.00
65173;BME280;51758;52.218;5.172;2023-03-19T05:52:36;98969.19;;;7.96;100.00
65173;BME280;51758;52.218;5.172;2023-03-19T05:55:05;99012.78;;;8.39;100.00
65173;BME280;51758;52.218;5.172;2023-03-19T05:57:33;99007.78;;;8.37;100.00
65173;BME280;51758;52.218;5.172;2023-03-19T06:00:01;98983.44;;;8.32;100.00
65173;BME280;51758;52.218;5.172;2023-03-19T06:02:32;99004.63;;;8.28;100.00
65173;BME280;51758;52.218;5.172;2023-03-19T06:05:00;99001.81;;;8.23;100.00
65173;BME280;51758;52.218;5.172;2023-03-19T06:07:28;98992.69;;;8.14;100.00
65173;BME280;51758;52.218;5.172;2023-03-19T06:09:57;98999.84;;;8.32;100.00
65173;BME280;51758;52.218;5.172;2023-03-19T06:12:24;99001.00;;;8.36;100.00
65173;BME280;51758;52.218;5.172;2023-03-19T06:14:52;99006.22;;;8.30;100.00
65173;BME280;51758;52.218;5.172;2023-03-19T06:17:20;99015.25;;;8.20;100.00
65173;BME280;51758;52.218;5.172;2023-03-19T06:19:48;99025.06;;;8.18;100.00
65173;BME280;51758;52.218;5.172;2023-03-19T06:22:15;99021.47;;;8.19;100.00
65173;BME280;51758;52.218;5.172;2023-03-19T06:24:43;99016.66;;;8.23;100.00
65173;BME280;51758;52.218;5.172;2023-03-19T06:27:12;99025.03;;;8.32;100.00
65173;BME280;51758;52.218;5.172;2023-03-19T06:29:40;99023.03;;;8.34;100.00
65173;BME280;51758;52.218;5.172;2023-03-19T06:32:08;99027.22;;;8.35;100.00
65173;BME280;51758;52.218;5.172;2023-03-19T06:34:36;99036.41;;;8.24;100.00
65173;BME280;51758;52.218;5.172;2023-03-19T06:37:04;99051.44;;;8.35;100.00
65173;BME280;51758;52.218;5.172;2023-03-19T06:39:32;99051.97;;;8.44;100.00
65173;BME280;51758;52.218;5.172;2023-03-19T06:42:00;99061.25;;;8.33;100.00
65173;BME280;51758;52.218;5.172;2023-03-19T06:44:29;99067.81;;;8.29;100.00
65173;BME280;51758;52.218;5.172;2023-03-19T06:46:57;99062.25;;;8.19;100.00
65173;BME280;51758;52.218;5.172;2023-03-19T06:49:25;99084.44;;;8.21;100.00
65173;BME280;51758;52.218;5.172;2023-03-19T06:51:52;99080.03;;;8.22;100.00
65173;BME280;51758;52.218;5.172;2023-03-19T06:54:21;99080.41;;;8.25;100.00
65173;BME280;51758;52.218;5.172;2023-03-19T06:56:49;99085.00;;;8.23;100.00
65173;BME280;51758;52.218;5.172;2023-03-19T06:59:17;99086.84;;;8.16;100.00
65173;BME280;51758;52.218;5.172;2023-03-19T07:01:46;99099.25;;;8.14;100.00
65173;BME280;51758;52.218;5.172;2023-03-19T07:04:13;99109.44;;;8.16;100.00
65173;BME280;51758;52.218;5.172;2023-03-19T07:06:41;99104.84;;;8.11;100.00
65173;BME280;51758;52.218;5.172;2023-03-19T07:09:09;99094.25;;;8.19;100.00
65173;BME280;51758;52.218;5.172;2023-03-19T07:11:37;99096.00;;;8.25;100.00
65173;BME280;51758;52.218;5.172;2023-03-19T07:14:04;99096.84;;;8.19;100.00
65173;BME280;51758;52.218;5.172;2023-03-19T07:16:32;99102.47;;;8.10;100.00
65173;BME280;51758;52.218;5.172;2023-03-19T07:19:01;99112.09;;;7.96;100.00
65173;BME280;51758;52.218;5.172;2023-03-19T07:21:29;99115.28;;;7.91;100.00
65173;BME280;51758;52.218;5.172;2023-03-19T07:23:57;99112.50;;;7.93;100.00
65173;BME280;51758;52.218;5.172;2023-03-19T07:26:24;99106.28;;;8.07;100.00
65173;BME280;51758;52.218;5.172;2023-03-19T07:28:53;99087.44;;;8.18;100.00
65173;BME280;51758;52.218;5.172;2023-03-19T07:31:20;99090.28;;;8.04;100.00
65173;BME280;51758;52.218;5.172;2023-03-19T07:33:48;99083.06;;;8.12;100.00
65173;BME280;51758;52.218;5.172;2023-03-19T07:36:18;99072.66;;;8.12;100.00
65173;BME280;51758;52.218;5.172;2023-03-19T07:38:46;99066.81;;;8.23;100.00
65173;BME280;51758;52.218;5.172;2023-03-19T07:41:14;99072.84;;;8.11;100.00
65173;BME280;51758;52.218;5.172;2023-03-19T07:43:42;99065.66;;;8.19;100.00
65173;BME280;51758;52.218;5.172;2023-03-19T07:46:09;99050.06;;;8.19;100.00
65173;BME280;51758;52.218;5.172;2023-03-19T07:48:37;99048.44;;;8.32;100.00
65173;BME280;51758;52.218;5.172;2023-03-19T07:51:05;99043.97;;;8.45;100.00
65173;BME280;51758;52.218;5.172;2023-03-19T07:53:34;99039.56;;;8.46;100.00
65173;BME280;51758;52.218;5.172;2023-03-19T07:56:02;99038.50;;;8.60;100.00
65173;BME280;51758;52.218;5.172;2023-03-19T07:58:30;99047.09;;;8.60;100.00
65173;BME280;51758;52.218;5.172;2023-03-19T08:00:57;99064.19;;;8.43;100.00
65173;BME280;51758;52.218;5.172;2023-03-19T08:03:25;99072.94;;;8.49;100.00
65173;BME280;51758;52.218;5.172;2023-03-19T08:05:53;99074.38;;;8.45;100.00
65173;BME280;51758;52.218;5.172;2023-03-19T08:08:21;99075.56;;;8.49;100.00
65173;BME280;51758;52.218;5.172;2023-03-19T08:10:52;99082.53;;;8.55;100.00
65173;BME280;51758;52.218;5.172;2023-03-19T08:13:20;99088.72;;;8.60;100.00
65173;BME280;51758;52.218;5.172;2023-03-19T08:15:48;99099.59;;;8.44;100.00
65173;BME280;51758;52.218;5.172;2023-03-19T08:18:15;99105.59;;;8.38;100.00
65173;BME280;51758;52.218;5.172;2023-03-19T08:20:43;99114.59;;;8.29;100.00
65173;BME280;51758;52.218;5.172;2023-03-19T08:23:11;99115.41;;;8.30;100.00
65173;BME280;51758;52.218;5.172;2023-03-19T08:25:39;99104.00;;;8.37;100.00
65173;BME280;51758;52.218;5.172;2023-03-19T08:28:08;99116.59;;;8.47;100.00
65173;BME280;51758;52.218;5.172;2023-03-19T08:30:37;99114.78;;;8.47;100.00
65173;BME280;51758;52.218;5.172;2023-03-19T08:33:05;99119.50;;;8.70;100.00
65173;BME280;51758;52.218;5.172;2023-03-19T08:35:34;99127.50;;;8.62;100.00
65173;BME280;51758;52.218;5.172;2023-03-19T08:38:02;99122.72;;;8.66;100.00
65173;BME280;51758;52.218;5.172;2023-03-19T08:40:29;99139.72;;;8.68;100.00
65173;BME280;51758;52.218;5.172;2023-03-19T08:42:58;99143.06;;;8.75;100.00
65173;BME280;51758;52.218;5.172;2023-03-19T08:45:28;99167.78;;;8.59;100.00
65173;BME280;51758;52.218;5.172;2023-03-19T08:47:55;99167.53;;;8.68;100.00
65173;BME280;51758;52.218;5.172;2023-03-19T08:50:24;99179.94;;;8.72;100.00
65173;BME280;51758;52.218;5.172;2023-03-19T08:52:52;99189.91;;;8.75;100.00
65173;BME280;51758;52.218;5.172;2023-03-19T08:55:21;99193.34;;;8.62;100.00
65173;BME280;51758;52.218;5.172;2023-03-19T08:57:49;99191.50;;;8.76;100.00
65173;BME280;51758;52.218;5.172;2023-03-19T09:00:17;99168.59;;;8.98;100.00
65173;BME280;51758;52.218;5.172;2023-03-19T09:02:46;99194.00;;;9.03;100.00
65173;BME280;51758;52.218;5.172;2023-03-19T09:05:14;99191.78;;;9.06;100.00
65173;BME280;51758;52.218;5.172;2023-03-19T09:07:42;99202.59;;;9.10;100.00
65173;BME280;51758;52.218;5.172;2023-03-19T09:10:09;99218.47;;;8.95;100.00
65173;BME280;51758;52.218;5.172;2023-03-19T09:12:37;99212.75;;;9.18;100.00
65173;BME280;51758;52.218;5.172;2023-03-19T09:15:06;99222.34;;;9.24;100.00
65173;BME280;51758;52.218;5.172;2023-03-19T09:17:33;99180.75;;;9.11;100.00
65173;BME280;51758;52.218;5.172;2023-03-19T09:20:03;99216.81;;;9.45;100.00
65173;BME280;51758;52.218;5.172;2023-03-19T09:22:32;99255.16;;;9.31;100.00
65173;BME280;51758;52.218;5.172;2023-03-19T09:25:00;99268.78;;;9.33;100.00
65173;BME280;51758;52.218;5.172;2023-03-19T09:27:28;99283.25;;;9.23;100.00
65173;BME280;51758;52.218;5.172;2023-03-19T09:29:56;99298.47;;;9.19;100.00
65173;BME280;51758;52.218;5.172;2023-03-19T09:32:23;99287.41;;;9.37;100.00
65173;BME280;51758;52.218;5.172;2023-03-19T09:34:51;99295.38;;;9.42;100.00
65173;BME280;51758;52.218;5.172;2023-03-19T09:37:20;99310.66;;;9.25;100.00
65173;BME280;51758;52.218;5.172;2023-03-19T09:39:48;99315.97;;;8.99;100.00
65173;BME280;51758;52.218;5.172;2023-03-19T09:42:28;99333.53;;;9.17;100.00
65173;BME280;51758;52.218;5.172;2023-03-19T09:44:58;99329.78;;;9.51;100.00
65173;BME280;51758;52.218;5.172;2023-03-19T09:47:29;99331.81;;;9.49;100.00
65173;BME280;51758;52.218;5.172;2023-03-19T09:49:59;99345.25;;;9.46;100.00
65173;BME280;51758;52.218;5.172;2023-03-19T09:52:35;99352.81;;;9.60;100.00
65173;BME280;51758;52.218;5.172;2023-03-19T09:55:11;99373.91;;;9.39;100.00
65173;BME280;51758;52.218;5.172;2023-03-19T09:57:41;99373.72;;;9.47;100.00
65173;BME280;51758;52.218;5.172;2023-03-19T10:00:19;99377.31;;;9.46;100.00
65173;BME280;51758;52.218;5.172;2023-03-19T10:02:52;99400.53;;;9.54;100.00
65173;BME280;51758;52.218;5.172;2023-03-19T10:05:26;99406.69;;;9.73;100.00
65173;BME280;51758;52.218;5.172;2023-03-19T10:08:10;99410.97;;;9.48;100.00
65173;BME280;51758;52.218;5.172;2023-03-19T10:10:48;99440.44;;;9.42;100.00
65173;BME280;51758;52.218;5.172;2023-03-19T10:13:37;99428.38;;;9.54;100.00
65173;BME280;51758;52.218;5.172;2023-03-19T10:16:15;99420.31;;;9.75;100.00
65173;BME280;51758;52.218;5.172;2023-03-19T10:18:47;99417.00;;;9.93;100.00
65173;BME280;51758;52.218;5.172;2023-03-19T10:21:19;99428.22;;;9.93;100.00
65173;BME280;51758;52.218;5.172;2023-03-19T10:23:53;99444.53;;;9.76;100.00
65173;BME280;51758;52.218;5.172;2023-03-19T10:26:28;99450.72;;;9.88;100.00
65173;BME280;51758;52.218;5.172;2023-03-19T10:29:03;99445.59;;;10.13;100.00
65173;BME280;51758;52.218;5.172;2023-03-19T10:31:42;99445.03;;;10.04;100.00
65173;BME280;51758;52.218;5.172;2023-03-19T10:34:20;99461.13;;;9.94;100.00
65173;BME280;51758;52.218;5.172;2023-03-19T10:36:49;99467.94;;;9.95;100.00
65173;BME280;51758;52.218;5.172;2023-03-19T10:39:26;99473.91;;;10.09;100.00
65173;BME280;51758;52.218;5.172;2023-03-19T10:42:02;99483.72;;;10.20;100.00
65173;BME280;51758;52.218;5.172;2023-03-19T10:44:35;99479.16;;;9.96;100.00
65173;BME280;51758;52.218;5.172;2023-03-19T10:47:11;99507.91;;;9.69;100.00
65173;BME280;51758;52.218;5.172;2023-03-19T10:49:40;99511.50;;;9.82;100.00
65173;BME280;51758;52.218;5.172;2023-03-19T10:52:16;99505.03;;;9.91;100.00
65173;BME280;51758;52.218;5.172;2023-03-19T10:54:53;99516.88;;;9.93;100.00
65173;BME280;51758;52.218;5.172;2023-03-19T10:57:25;99508.81;;;10.01;100.00
65173;BME280;51758;52.218;5.172;2023-03-19T10:59:53;99521.88;;;9.95;100.00
65173;BME280;51758;52.218;5.172;2023-03-19T11:02:23;99509.66;;;9.95;100.00
65173;BME280;51758;52.218;5.172;2023-03-19T11:05:06;99510.81;;;10.13;100.00
65173;BME280;51758;52.218;5.172;2023-03-19T11:07:36;99535.69;;;10.02;100.00
65173;BME280;51758;52.218;5.172;2023-03-19T11:10:11;99534.47;;;10.11;100.00
65173;BME280;51758;52.218;5.172;2023-03-19T11:12:46;99526.63;;;10.24;100.00
65173;BME280;51758;52.218;5.172;2023-03-19T11:15:19;99541.22;;;10.38;100.00
65173;BME280;51758;52.218;5.172;2023-03-19T11:17:48;99545.63;;;10.38;100.00
65173;BME280;51758;52.218;5.172;2023-03-19T11:20:21;99574.19;;;10.13;100.00
65173;BME280;51758;52.218;5.172;2023-03-19T11:22:51;99571.78;;;10.18;100.00
65173;BME280;51758;52.218;5.172;2023-03-19T11:25:25;99582.97;;;10.32;100.00
65173;BME280;51758;52.218;5.172;2023-03-19T11:27:59;99591.34;;;10.47;100.00
65173;BME280;51758;52.218;5.172;2023-03-19T11:30:32;99572.59;;;11.01;100.00
65173;BME280;51758;52.218;5.172;2023-03-19T11:34:58;99642.66;;;11.04;100.00
65173;BME280;51758;52.218;5.172;2023-03-19T11:37:32;99648.53;;;10.93;100.00
65173;BME280;51758;52.218;5.172;2023-03-19T11:40:11;99638.75;;;11.20;100.00
65173;BME280;51758;52.218;5.172;2023-03-19T11:42:51;99683.41;;;10.74;100.00
65173;BME280;51758;52.218;5.172;2023-03-19T11:45:29;99673.34;;;10.71;100.00
65173;BME280;51758;52.218;5.172;2023-03-19T11:48:10;99683.00;;;10.64;100.00
65173;BME280;51758;52.218;5.172;2023-03-19T11:50:48;99683.84;;;10.58;100.00
65173;BME280;51758;52.218;5.172;2023-03-19T11:53:22;99688.88;;;10.59;100.00
65173;BME280;51758;52.218;5.172;2023-03-19T11:55:58;99675.81;;;10.59;100.00
65173;BME280;51758;52.218;5.172;2023-03-19T11:58:43;99681.88;;;10.98;100.00
65173;BME280;51758;52.218;5.172;2023-03-19T12:01:27;99689.38;;;10.81;100.00
65173;BME280;51758;52.218;5.172;2023-03-19T12:04:22;99698.06;;;10.68;100.00
65173;BME280;51758;52.218;5.172;2023-03-19T12:07:01;99704.28;;;10.67;100.00
65173;BME280;51758;52.218;5.172;2023-03-19T12:09:37;99706.84;;;10.87;100.00
65173;BME280;51758;52.218;5.172;2023-03-19T12:12:15;99728.84;;;10.47;100.00
65173;BME280;51758;52.218;5.172;2023-03-19T12:15:00;99728.22;;;10.58;100.00
65173;BME280;51758;52.218;5.172;2023-03-19T12:17:43;99714.88;;;10.79;100.00
65173;BME280;51758;52.218;5.172;2023-03-19T12:20:20;99729.38;;;10.75;100.00
65173;BME280;51758;52.218;5.172;2023-03-19T12:22:59;99754.88;;;10.66;100.00
65173;BME280;51758;52.218;5.172;2023-03-19T12:25:44;99764.38;;;10.48;100.00
65173;BME280;51758;52.218;5.172;2023-03-19T12:28:22;99765.31;;;10.73;100.00
65173;BME280;51758;52.218;5.172;2023-03-19T12:31:04;99776.41;;;10.62;100.00
65173;BME280;51758;52.218;5.172;2023-03-19T12:33:43;99781.78;;;10.73;100.00
65173;BME280;51758;52.218;5.172;2023-03-19T12:36:17;99798.47;;;10.66;100.00
65173;BME280;51758;52.218;5.172;2023-03-19T12:38:50;99808.28;;;10.84;100.00
65173;BME280;51758;52.218;5.172;2023-03-19T12:41:22;99796.03;;;10.84;100.00
65173;BME280;51758;52.218;5.172;2023-03-19T12:43:55;99824.13;;;10.95;100.00
65173;BME280;51758;52.218;5.172;2023-03-19T12:46:27;99832.50;;;11.10;100.00
65173;BME280;51758;52.218;5.172;2023-03-19T12:49:02;99858.09;;;10.82;100.00
65173;BME280;51758;52.218;5.172;2023-03-19T12:51:34;99858.88;;;10.89;100.00
65173;BME280;51758;52.218;5.172;2023-03-19T12:54:07;99878.38;;;10.73;100.00
65173;BME280;51758;52.218;5.172;2023-03-19T12:56:42;99865.13;;;10.88;100.00
65173;BME280;51758;52.218;5.172;2023-03-19T12:59:16;99876.97;;;10.84;100.00
65173;BME280;51758;52.218;5.172;2023-03-19T13:01:49;99875.50;;;11.08;100.00
65173;BME280;51758;52.218;5.172;2023-03-19T13:04:21;99869.06;;;11.24;100.00
65173;BME280;51758;52.218;5.172;2023-03-19T13:06:53;99868.53;;;11.53;100.00
65173;BME280;51758;52.218;5.172;2023-03-19T13:09:29;99883.72;;;11.25;100.00
65173;BME280;51758;52.218;5.172;2023-03-19T13:12:00;99897.56;;;11.32;100.00
65173;BME280;51758;52.218;5.172;2023-03-19T13:14:37;99895.00;;;11.12;100.00